TimeAST,TemperatureF,Dew PointF,Humidity,Sea Level PressureIn,VisibilityMPH,Wind Direction,Wind SpeedMPH,Gust SpeedMPH,PrecipitationIn,Events,Conditions,WindDirDegrees,DateUTC
12:00 AM,82.4,75.2,79,29.95,6.2,East,10.4,-,N/A,,Partly Cloudy,80,2011-10-24 04:00:00
1:00 AM,82.4,73.4,74,29.92,6.2,East,11.5,-,N/A,,Partly Cloudy,80,2011-10-24 05:00:00
2:00 AM,82.4,73.4,74,29.92,6.2,East,11.5,-,N/A,,Partly Cloudy,80,2011-10-24 06:00:00
3:00 AM,82.4,73.4,74,29.89,6.2,ENE,11.5,-,N/A,,Scattered Clouds,70,2011-10-24 07:00:00
4:00 AM,82.4,73.4,74,29.89,6.2,East,12.7,-,N/A,,Partly Cloudy,80,2011-10-24 08:00:00
5:00 AM,82.4,73.4,74,29.89,6.2,East,12.7,-,N/A,,Partly Cloudy,80,2011-10-24 09:00:00
6:00 AM,82.4,73.4,74,29.89,6.2,East,13.8,-,N/A,,Partly Cloudy,80,2011-10-24 10:00:00
7:00 AM,82.4,73.4,74,29.92,6.2,East,11.5,-,N/A,,Partly Cloudy,80,2011-10-24 11:00:00
8:00 AM,84,74,64,29.94,22,East,15.0,,,,Partly Cloudy,80,2011-10-24 12:00:00
8:00 AM,84.2,73.4,70,29.92,6.2,East,15.0,-,N/A,,Scattered Clouds,80,2011-10-24 12:00:00
9:00 AM,86.0,73.4,66,29.95,6.2,East,16.1,-,N/A,,Scattered Clouds,80,2011-10-24 13:00:00
10:00 AM,86.0,73.4,66,29.95,6.2,East,16.1,-,N/A,,Scattered Clouds,80,2011-10-24 14:00:00
11:00 AM,87,73,55,29.95,22,East,17.3,,,,Partly Cloudy,90,2011-10-24 15:00:00
11:00 AM,86.0,73.4,66,29.95,6.2,East,17.3,-,N/A,,Scattered Clouds,90,2011-10-24 15:00:00
12:00 PM,87.8,73.4,62,29.92,6.2,East,13.8,-,N/A,,Scattered Clouds,90,2011-10-24 16:00:00
1:00 PM,87.8,73.4,62,29.89,6.2,East,10.4,-,N/A,,Scattered Clouds,100,2011-10-24 17:00:00
2:00 PM,87,75,59,29.88,16,East,11.5,,,,Partly Cloudy,90,2011-10-24 18:00:00
2:00 PM,87.8,75.2,66,29.86,6.2,East,11.5,-,N/A,,Mostly Cloudy,90,2011-10-24 18:00:00
3:00 PM,86.0,73.4,66,29.86,6.2,ENE,16.1,-,N/A,,Mostly Cloudy,70,2011-10-24 19:00:00
4:00 PM,84.2,77.0,79,29.86,6.2,ENE,11.5,-,N/A,,Mostly Cloudy,70,2011-10-24 20:00:00
5:00 PM,83,76,74,29.87,16,East,10.4,,,Rain,Light Rain Showers,80,2011-10-24 21:00:00
5:00 PM,82.4,77.0,84,29.86,6.2,East,10.4,-,N/A,,Mostly Cloudy,80,2011-10-24 21:00:00
6:00 PM,82.4,75.2,79,29.89,6.2,East,12.7,-,N/A,,Scattered Clouds,80,2011-10-24 22:00:00
7:00 PM,82.4,75.2,79,29.89,6.2,ENE,8.1,-,N/A,,Scattered Clouds,70,2011-10-24 23:00:00
8:00 PM,82,75,73,29.91,12,East,6.9,,,,Partly Cloudy,80,2011-10-25 00:00:00
8:00 PM,82.4,75.2,79,29.89,6.2,East,6.9,-,N/A,,Scattered Clouds,80,2011-10-25 00:00:00
9:00 PM,82.4,75.2,79,29.92,6.2,East,11.5,-,N/A,,Scattered Clouds,80,2011-10-25 01:00:00
10:00 PM,82.4,75.2,79,29.89,6.2,East,9.2,-,N/A,,Scattered Clouds,100,2011-10-25 02:00:00
11:00 PM,82.4,75.2,79,29.89,6.2,East,9.2,-,N/A,,Scattered Clouds,80,2011-10-25 03:00:00